PH-0057 weather

CCP Open Field Heliport
Pasay, Philippines

Public forecast

Using degrees Celsius for public forecast. Weather courtesy of forecast.io.

Closest aviation weather report (METAR) to CCP Open Field Heliport

Closest report is Ninoy Aquino International Airport, 3.4 nm (6.3 km) SE. Retrieved 2019/11/17 16:00 UTC (51 minutes ago):

RPLL 171600Z 21004KT 9999 SCT020 BKN090 OVC270 28/25 Q1009 NOSIG RMK A2980

Closest aviation forecast (TAF) to CCP Open Field Heliport

Closest forecast is Ninoy Aquino International Airport, 3.4 nm (6.3 km) SE. Retrieved 2019/11/17 12:00 UTC (5 hours ago):

TAF RPLL 171100Z 1712/1818 27006KT 9999 FEW023 SCT100 TX32/1806Z TN26/1721Z TEMPO 1712/1718 24004KT 8000 -TSRA FEW022CB SCT023 BKN090 TEMPO 1718/1724 31005KT FEW023 BKN100